createdAt,value
2024-02-03T00:00:43.562Z,94.78
2024-02-03T00:01:43.498Z,94.89
2024-02-03T00:02:43.436Z,94.89
2024-02-03T00:03:43.592Z,95.09
2024-02-03T00:04:43.442Z,94.58
2024-02-03T00:05:43.434Z,94.89
2024-02-03T00:06:43.488Z,94.78
2024-02-03T00:07:43.403Z,95.09
2024-02-03T00:08:43.371Z,94.78
2024-02-03T00:09:43.455Z,94.99
2024-02-03T00:10:43.345Z,94.78
2024-02-03T00:11:43.343Z,94.95
2024-02-03T00:12:43.372Z,94.48
2024-02-03T00:13:43.330Z,94.64
2024-02-03T00:14:43.316Z,94.84
2024-02-03T00:15:43.367Z,95.05
2024-02-03T00:16:43.286Z,95.46
2024-02-03T00:17:43.305Z,94.95
2024-02-03T00:18:43.308Z,95.15
2024-02-03T00:19:43.475Z,95.05
2024-02-03T00:20:43.259Z,94.95
2024-02-03T00:21:43.347Z,95.05
2024-02-03T00:22:43.227Z,94.74
2024-02-03T00:23:43.229Z,94.64
2024-02-03T00:24:43.261Z,95.05
2024-02-03T00:25:43.197Z,94.95
2024-02-03T00:26:43.175Z,94.23
2024-02-03T00:27:43.214Z,94.59
2024-02-03T00:28:43.150Z,94.64
2024-02-03T00:29:43.163Z,94.84
2024-02-03T00:30:43.165Z,95.05
2024-02-03T00:31:43.121Z,94.84
2024-02-03T00:32:43.158Z,94.12
2024-02-03T00:33:43.192Z,94.18
2024-02-03T00:34:43.240Z,94.08
2024-02-03T00:35:43.102Z,94.23
2024-02-03T00:36:43.120Z,94.33
2024-02-03T00:37:43.110Z,94.33
2024-02-03T00:38:43.186Z,94.33
2024-02-03T00:39:43.146Z,94.43
2024-02-03T00:40:43.022Z,94.54
2024-02-03T00:41:43.100Z,94.12
2024-02-03T00:42:43.006Z,94.43
2024-02-03T00:43:43.003Z,95.05
2024-02-03T00:44:43.151Z,94.39
2024-02-03T00:45:43.047Z,94.84
2024-02-03T00:46:42.955Z,94.64
2024-02-03T00:47:42.944Z,94.84
2024-02-03T00:48:43.134Z,94.95
2024-02-03T00:49:43.043Z,95.01
2024-02-03T00:50:42.910Z,95.46
2024-02-03T00:51:42.981Z,95.31
2024-02-03T00:52:42.921Z,95.01
2024-02-03T00:53:43.000Z,95.01
2024-02-03T00:54:42.903Z,95.21
2024-02-03T00:55:42.948Z,94.59
2024-02-03T00:56:42.862Z,95.21
2024-02-03T00:57:42.872Z,94.90
2024-02-03T00:58:42.835Z,94.90
2024-02-03T00:59:42.819Z,95.52
2024-02-03T01:00:42.886Z,95.72
2024-02-03T01:01:42.828Z,95.42
2024-02-03T01:02:42.927Z,95.83
2024-02-03T01:03:42.825Z,96.14
2024-02-03T01:04:42.862Z,96.03
2024-02-03T01:05:42.766Z,96.34
2024-02-03T01:06:42.778Z,96.90
2024-02-03T01:07:42.761Z,96.75
2024-02-03T01:08:42.726Z,97.41
2024-02-03T01:09:42.757Z,97.78
2024-02-03T01:10:42.722Z,97.37
2024-02-03T01:11:42.679Z,97.52
2024-02-03T01:12:42.742Z,97.16
2024-02-03T01:13:42.710Z,97.37
2024-02-03T01:14:42.656Z,97.47
2024-02-03T01:15:42.667Z,97.88
2024-02-03T01:16:42.642Z,97.78
2024-02-03T01:17:42.705Z,97.78
2024-02-03T01:18:42.657Z,97.88
2024-02-03T01:19:42.705Z,97.78
2024-02-03T01:20:42.601Z,97.78
2024-02-03T01:21:42.706Z,97.78
2024-02-03T01:22:42.592Z,97.67
2024-02-03T01:23:42.566Z,97.27
2024-02-03T01:24:42.593Z,97.88
2024-02-03T01:25:42.530Z,97.78
2024-02-03T01:26:42.533Z,98.75
2024-02-03T01:27:42.541Z,99.01
2024-02-03T01:28:42.502Z,99.16
2024-02-03T01:29:42.503Z,98.96
2024-02-03T01:30:42.504Z,98.96
2024-02-03T01:31:42.478Z,99.37
2024-02-03T01:32:42.488Z,99.26
2024-02-03T01:33:42.517Z,99.47
2024-02-03T01:34:42.493Z,98.85
2024-02-03T01:35:42.458Z,99.05
2024-02-03T01:36:42.503Z,99.05
2024-02-03T01:37:42.402Z,98.96
2024-02-03T01:38:42.387Z,99.05
2024-02-03T01:39:42.429Z,98.91
2024-02-03T01:40:42.366Z,99.11
2024-02-03T01:41:42.390Z,99.01
2024-02-03T01:42:42.360Z,99.05
2024-02-03T01:43:42.333Z,99.01
2024-02-03T01:44:42.318Z,99.32
2024-02-03T01:45:42.404Z,99.37
2024-02-03T01:46:42.304Z,99.11
2024-02-03T01:47:42.343Z,99.26
2024-02-03T01:48:42.416Z,99.47
2024-02-03T01:49:42.473Z,99.88
2024-02-03T01:50:42.250Z,99.99
2024-02-03T01:51:42.330Z,99.93
2024-02-03T01:52:42.241Z,99.63
2024-02-03T01:53:42.237Z,99.93
2024-02-03T01:54:42.241Z,99.83
2024-02-03T01:55:42.214Z,99.83
2024-02-03T01:56:42.196Z,99.57
2024-02-03T01:57:42.332Z,99.67
2024-02-03T01:58:42.170Z,99.93
2024-02-03T01:59:42.250Z,99.77
2024-02-03T02:00:42.221Z,99.73
2024-02-03T02:01:42.202Z,99.98
2024-02-03T02:02:42.215Z,99.63
2024-02-03T02:03:42.192Z,99.77
2024-02-03T02:04:42.165Z,99.99
2024-02-03T02:05:42.119Z,99.99
2024-02-03T02:06:42.236Z,99.99
2024-02-03T02:07:42.069Z,99.99
2024-02-03T02:08:42.069Z,99.99
2024-02-03T02:09:42.268Z,99.99
2024-02-03T02:10:42.045Z,99.99
2024-02-03T02:11:42.043Z,99.99
2024-02-03T02:12:42.106Z,99.99
2024-02-03T02:13:42.018Z,99.99
2024-02-03T02:14:41.993Z,99.77
2024-02-03T02:15:42.031Z,99.99
2024-02-03T02:16:41.968Z,99.99
2024-02-03T02:17:41.983Z,99.99
2024-02-03T02:18:42.015Z,99.99
2024-02-03T02:19:42.036Z,99.99
2024-02-03T02:20:41.954Z,99.99
2024-02-03T02:21:41.967Z,99.99
2024-02-03T02:22:41.946Z,99.99
2024-02-03T02:23:41.927Z,99.99
2024-02-03T02:24:41.928Z,99.99
2024-02-03T02:25:41.873Z,99.99
2024-02-03T02:26:41.883Z,99.99
2024-02-03T02:27:41.926Z,99.99
2024-02-03T02:28:41.843Z,99.99
2024-02-03T02:29:41.832Z,99.99
2024-02-03T02:30:41.868Z,99.99
2024-02-03T02:31:41.803Z,99.99
2024-02-03T02:32:41.871Z,99.99
2024-02-03T02:33:41.948Z,99.99
2024-02-03T02:34:41.851Z,99.99
2024-02-03T02:35:41.757Z,99.99
2024-02-03T02:36:41.814Z,99.99
2024-02-03T02:37:41.757Z,99.99
2024-02-03T02:38:41.742Z,99.99
2024-02-03T02:39:41.766Z,99.99
2024-02-03T02:40:41.708Z,99.99
2024-02-03T02:41:41.701Z,99.99
2024-02-03T02:42:41.743Z,99.99
2024-02-03T02:43:41.702Z,99.99
2024-02-03T02:44:41.724Z,99.99
2024-02-03T02:45:41.705Z,99.99
2024-02-03T02:46:41.642Z,99.99
2024-02-03T02:47:41.643Z,99.99
2024-02-03T02:48:41.689Z,99.99
2024-02-03T02:49:41.766Z,99.99
2024-02-03T02:50:41.636Z,99.99
2024-02-03T02:51:41.626Z,99.99
2024-02-03T02:52:41.615Z,99.99
2024-02-03T02:53:41.587Z,99.99
2024-02-03T02:54:41.693Z,99.99
2024-02-03T02:55:41.550Z,99.99
2024-02-03T02:56:41.560Z,99.99
2024-02-03T02:57:41.722Z,99.99
2024-02-03T02:58:41.543Z,99.99
2024-02-03T02:59:41.543Z,99.99
2024-02-03T03:00:41.604Z,99.99
2024-02-03T03:01:41.533Z,99.99
2024-02-03T03:02:41.512Z,99.99
2024-02-03T03:03:41.558Z,99.99
2024-02-03T03:04:41.555Z,99.99
2024-02-03T03:05:41.439Z,99.99
2024-02-03T03:06:41.453Z,99.99
2024-02-03T03:07:41.426Z,99.99
2024-02-03T03:08:41.416Z,99.99
2024-02-03T03:09:41.445Z,99.99
2024-02-03T03:10:41.403Z,99.99
2024-02-03T03:11:41.378Z,99.99
2024-02-03T03:12:41.435Z,99.99
2024-02-03T03:13:41.345Z,99.99
2024-02-03T03:14:41.365Z,99.99
2024-02-03T03:15:41.415Z,99.99
2024-02-03T03:16:41.320Z,99.99
2024-02-03T03:17:41.381Z,99.99
2024-02-03T03:18:41.520Z,99.99
2024-02-03T03:19:41.418Z,99.99
2024-02-03T03:20:41.282Z,99.99
2024-02-03T03:21:41.410Z,99.99
2024-02-03T03:22:41.251Z,99.99
2024-02-03T03:23:41.349Z,99.99
2024-02-03T03:24:41.274Z,99.99
2024-02-03T03:25:41.212Z,99.99
2024-02-03T03:26:41.252Z,99.99
2024-02-03T03:27:41.305Z,99.99
2024-02-03T03:28:41.196Z,99.99
2024-02-03T03:29:41.177Z,99.99
2024-02-03T03:30:41.245Z,99.99
2024-02-03T03:31:41.187Z,99.99
2024-02-03T03:32:41.224Z,99.99
2024-02-03T03:33:41.437Z,99.99
2024-02-03T03:34:41.207Z,99.99
2024-02-03T03:35:41.103Z,99.99
2024-02-03T03:36:41.172Z,99.99
2024-02-03T03:37:41.132Z,99.99
2024-02-03T03:38:41.101Z,99.99
2024-02-03T03:39:41.123Z,99.99
2024-02-03T03:40:41.190Z,99.99
2024-02-03T03:41:41.088Z,99.99
2024-02-03T03:42:41.112Z,99.99
2024-02-03T03:43:41.020Z,99.99
2024-02-03T03:44:41.021Z,99.99
2024-02-03T03:45:41.039Z,99.99
2024-02-03T03:46:40.996Z,99.99
2024-02-03T03:47:41.039Z,99.99
2024-02-03T03:48:41.023Z,99.99
2024-02-03T03:49:41.114Z,99.99
2024-02-03T03:50:40.970Z,99.99
2024-02-03T03:51:40.980Z,99.99
2024-02-03T03:52:40.958Z,99.99
2024-02-03T03:53:40.910Z,99.99
2024-02-03T03:54:40.949Z,99.99
2024-02-03T03:55:40.900Z,99.99
2024-02-03T03:56:40.950Z,99.99
2024-02-03T03:57:40.937Z,99.99
2024-02-03T03:58:40.866Z,99.99
2024-02-03T03:59:40.859Z,99.99
2024-02-03T04:00:40.948Z,99.99
2024-02-03T04:01:40.890Z,99.99
2024-02-03T04:02:40.860Z,99.99
2024-02-03T04:03:40.874Z,99.99
2024-02-03T04:04:40.839Z,99.99
2024-02-03T04:05:40.822Z,99.99
2024-02-03T04:06:40.860Z,99.99
2024-02-03T04:07:40.780Z,99.99
2024-02-03T04:08:40.766Z,99.99
2024-02-03T04:09:40.811Z,99.99
2024-02-03T04:10:40.747Z,99.99
2024-02-03T04:11:40.791Z,99.99
2024-02-03T04:12:40.804Z,99.99
2024-02-03T04:13:40.704Z,99.99
2024-02-03T04:14:40.683Z,99.99
2024-02-03T04:15:40.694Z,99.99
2024-02-03T04:16:40.652Z,99.99
2024-02-03T04:17:40.705Z,99.99
2024-02-03T04:18:40.716Z,99.99
2024-02-03T04:19:40.752Z,99.99
2024-02-03T04:20:40.619Z,99.99
2024-02-03T04:21:40.628Z,99.99
2024-02-03T04:22:40.618Z,99.99
2024-02-03T04:23:40.637Z,99.99
2024-02-03T04:24:40.731Z,99.99
2024-02-03T04:25:40.581Z,99.99
2024-02-03T04:26:40.550Z,99.99
2024-02-03T04:27:40.584Z,99.99
2024-02-03T04:28:40.540Z,99.99
2024-02-03T04:29:40.544Z,99.99
2024-02-03T04:30:40.570Z,99.99
2024-02-03T04:31:40.568Z,99.99
2024-02-03T04:32:40.513Z,99.99
2024-02-03T04:33:40.528Z,99.99
2024-02-03T04:34:40.539Z,99.99
2024-02-03T04:35:40.480Z,99.99
2024-02-03T04:36:40.547Z,99.99
2024-02-03T04:37:40.552Z,99.99
2024-02-03T04:38:40.423Z,99.99
2024-02-03T04:39:40.434Z,99.99
2024-02-03T04:40:40.422Z,99.99
2024-02-03T04:41:40.409Z,99.99
2024-02-03T04:42:40.443Z,99.99
2024-02-03T04:43:40.381Z,99.99
2024-02-03T04:44:40.366Z,99.99
2024-02-03T04:45:40.351Z,99.99
2024-02-03T04:46:40.392Z,99.99
2024-02-03T04:47:40.432Z,99.99
2024-02-03T04:48:40.413Z,99.99
2024-02-03T04:49:40.404Z,99.99
2024-02-03T04:50:40.321Z,99.99
2024-02-03T04:51:40.374Z,99.99
2024-02-03T04:52:40.264Z,99.99
2024-02-03T04:53:40.281Z,99.99
2024-02-03T04:54:40.269Z,99.99
2024-02-03T04:55:40.249Z,99.99
2024-02-03T04:56:40.288Z,99.99
2024-02-03T04:57:40.258Z,99.99
2024-02-03T04:58:40.213Z,99.99
2024-02-03T04:59:40.253Z,99.99
2024-02-03T05:00:40.243Z,99.99
2024-02-03T05:01:40.424Z,99.99
2024-02-03T05:02:40.168Z,99.99
2024-02-03T05:03:40.286Z,99.99
2024-02-03T05:04:40.309Z,99.99
2024-02-03T05:05:40.147Z,99.99
2024-02-03T05:06:40.349Z,99.99
2024-02-03T05:07:40.158Z,99.99
2024-02-03T05:08:40.101Z,99.99
2024-02-03T05:09:40.156Z,99.99
2024-02-03T05:10:40.166Z,99.99
2024-02-03T05:11:40.066Z,99.99
2024-02-03T05:12:40.128Z,99.99
2024-02-03T05:13:40.048Z,99.99
2024-02-03T05:14:40.027Z,99.99
2024-02-03T05:15:40.054Z,99.99
2024-02-03T05:16:39.998Z,99.99
2024-02-03T05:17:40.086Z,99.99
2024-02-03T05:18:40.117Z,99.99
2024-02-03T05:19:39.997Z,99.99
2024-02-03T05:20:39.972Z,99.99
2024-02-03T05:21:39.956Z,99.99
2024-02-03T05:22:39.951Z,99.99
2024-02-03T05:23:39.977Z,99.99
2024-02-03T05:24:39.978Z,99.99
2024-02-03T05:25:39.907Z,99.99
2024-02-03T05:26:39.902Z,99.99
2024-02-03T05:27:39.940Z,99.99
2024-02-03T05:28:39.880Z,99.99
2024-02-03T05:29:39.882Z,99.99
2024-02-03T05:30:39.885Z,99.99
2024-02-03T05:31:39.855Z,99.99
2024-02-03T05:32:39.866Z,99.99
2024-02-03T05:33:39.894Z,99.99
2024-02-03T05:34:40.036Z,99.99
2024-02-03T05:35:39.798Z,99.99
2024-02-03T05:36:39.927Z,99.99
2024-02-03T05:37:39.763Z,99.99
2024-02-03T05:38:39.776Z,99.99
2024-02-03T05:39:39.885Z,99.99
2024-02-03T05:40:39.743Z,99.99
2024-02-03T05:41:39.741Z,99.99
2024-02-03T05:42:39.775Z,99.99
2024-02-03T05:43:39.696Z,99.99
2024-02-03T05:44:39.714Z,99.99
2024-02-03T05:45:39.728Z,99.99
2024-02-03T05:46:39.674Z,99.99
2024-02-03T05:47:39.692Z,99.99
2024-02-03T05:48:39.746Z,99.99
2024-02-03T05:49:39.699Z,99.99
2024-02-03T05:50:39.659Z,99.99
2024-02-03T05:51:39.641Z,99.93
2024-02-03T05:52:39.614Z,99.99
2024-02-03T05:53:39.613Z,99.99
2024-02-03T05:54:39.623Z,99.99
2024-02-03T05:55:39.599Z,99.99
2024-02-03T05:56:39.562Z,99.99
2024-02-03T05:57:39.584Z,99.99
2024-02-03T05:58:39.546Z,99.99
2024-02-03T05:59:46.038Z,99.99
2024-02-03T06:00:39.583Z,99.99
2024-02-03T06:01:39.629Z,99.63
2024-02-03T06:02:39.518Z,99.93
2024-02-03T06:03:39.762Z,99.68
2024-02-03T06:04:39.529Z,99.48
2024-02-03T06:05:53.072Z,99.68
2024-02-03T06:06:40.601Z,99.58
2024-02-03T06:07:39.515Z,99.48
2024-02-03T06:08:39.442Z,99.58
2024-02-03T06:09:39.493Z,99.79
2024-02-03T06:10:39.430Z,99.48
2024-02-03T06:11:39.443Z,99.79
2024-02-03T06:12:39.457Z,99.79
2024-02-03T06:13:39.393Z,99.68
2024-02-03T06:14:39.399Z,99.48
2024-02-03T06:15:39.464Z,99.99
2024-02-03T06:16:39.357Z,99.68
2024-02-03T06:17:39.367Z,99.79
2024-02-03T06:18:39.480Z,99.48
2024-02-03T06:19:43.433Z,99.58
2024-02-03T06:20:39.320Z,99.68
2024-02-03T06:21:39.323Z,99.79
2024-02-03T06:22:39.320Z,99.79
2024-02-03T06:23:39.272Z,99.79
2024-02-03T06:24:39.329Z,99.79
2024-02-03T06:25:41.635Z,99.48
2024-02-03T06:26:39.247Z,99.48
2024-02-03T06:27:39.307Z,99.27
2024-02-03T06:28:39.217Z,99.12
2024-02-03T06:29:39.216Z,98.86
2024-02-03T06:30:39.291Z,98.76
2024-02-03T06:31:39.205Z,98.96
2024-02-03T06:32:39.246Z,98.96
2024-02-03T06:33:39.282Z,98.55
2024-02-03T06:34:39.283Z,98.55
2024-02-03T06:35:41.181Z,98.86
2024-02-03T06:36:39.226Z,99.02
2024-02-03T06:37:39.129Z,98.82
2024-02-03T06:38:39.147Z,98.86
2024-02-03T06:39:39.200Z,99.38
2024-02-03T06:40:39.101Z,98.96
2024-02-03T06:41:39.127Z,98.66
2024-02-03T06:42:39.091Z,99.07
2024-02-03T06:43:39.076Z,99.07
2024-02-03T06:44:39.047Z,99.07
2024-02-03T06:45:39.072Z,99.17
2024-02-03T06:46:39.031Z,99.07
2024-02-03T06:47:39.074Z,99.07
2024-02-03T06:48:39.109Z,99.17
2024-02-03T06:49:39.131Z,99.17
2024-02-03T06:50:38.999Z,98.61
2024-02-03T06:51:38.991Z,98.86
2024-02-03T06:52:38.986Z,98.76
2024-02-03T06:53:38.950Z,98.71
2024-02-03T06:54:38.975Z,98.71
2024-02-03T06:55:38.926Z,98.51
2024-02-03T06:56:38.926Z,98.61
2024-02-03T06:57:38.993Z,97.99
2024-02-03T06:58:38.918Z,98.14
2024-02-03T06:59:38.908Z,98.20
2024-02-03T07:00:39.020Z,98.30
2024-02-03T07:01:38.978Z,98.20
2024-02-03T07:02:38.954Z,98.61
2024-02-03T07:03:38.890Z,98.30
2024-02-03T07:04:38.920Z,98.41
2024-02-03T07:05:38.823Z,98.30
2024-02-03T07:06:38.865Z,98.61
2024-02-03T07:07:38.864Z,98.41
2024-02-03T07:08:38.800Z,98.30
2024-02-03T07:09:38.823Z,98.51
2024-02-03T07:10:38.801Z,98.61
2024-02-03T07:11:41.004Z,98.41
2024-02-03T07:12:38.747Z,98.41
2024-02-03T07:13:38.754Z,98.10
2024-02-03T07:14:38.726Z,98.51
2024-02-03T07:15:38.792Z,98.41
2024-02-03T07:16:38.722Z,98.20
2024-02-03T07:17:38.714Z,98.51
2024-02-03T07:18:38.918Z,98.30
2024-02-03T07:19:38.978Z,98.61
2024-02-03T07:20:38.665Z,98.10
2024-02-03T07:21:38.755Z,98.51
2024-02-03T07:22:38.657Z,98.20
2024-02-03T07:23:38.620Z,98.10
2024-02-03T07:24:38.773Z,98.61
2024-02-03T07:25:38.604Z,98.51
2024-02-03T07:26:38.655Z,98.71
2024-02-03T07:27:38.754Z,98.30
2024-02-03T07:28:38.694Z,98.41
2024-02-03T07:29:38.684Z,98.20
2024-02-03T07:30:38.712Z,98.36
2024-02-03T07:31:38.573Z,98.10
2024-02-03T07:32:38.730Z,98.51
2024-02-03T07:33:38.741Z,98.30
2024-02-03T07:34:38.689Z,98.71
2024-02-03T07:35:38.593Z,98.71
2024-02-03T07:36:38.591Z,98.30
2024-02-03T07:37:38.523Z,98.61
2024-02-03T07:38:38.482Z,98.61
2024-02-03T07:39:38.600Z,98.82
2024-02-03T07:40:38.472Z,98.61
2024-02-03T07:41:38.447Z,98.82
2024-02-03T07:42:38.529Z,99.22
2024-02-03T07:43:38.453Z,98.71
2024-02-03T07:44:38.432Z,98.71
2024-02-03T07:45:38.500Z,98.51
2024-02-03T07:46:38.374Z,98.46
2024-02-03T07:47:38.445Z,98.82
2024-02-03T07:48:38.479Z,98.92
2024-02-03T07:49:38.444Z,98.82
2024-02-03T07:50:38.338Z,99.08
2024-02-03T07:51:38.459Z,99.12
2024-02-03T07:52:38.306Z,98.87
2024-02-03T07:53:38.321Z,98.82
2024-02-03T07:54:38.345Z,98.77
2024-02-03T07:55:38.276Z,99.38
2024-02-03T07:56:38.273Z,99.38
2024-02-03T07:57:38.328Z,99.38
2024-02-03T07:58:38.297Z,99.69
2024-02-03T07:59:38.306Z,99.74
2024-02-03T08:00:38.354Z,99.69
2024-02-03T08:01:38.244Z,98.97
2024-02-03T08:02:38.205Z,98.87
2024-02-03T08:03:38.341Z,98.67
2024-02-03T08:04:38.229Z,98.97
2024-02-03T08:05:38.188Z,98.87
2024-02-03T08:06:38.191Z,98.97
2024-02-03T08:07:38.155Z,98.87
2024-02-03T08:08:38.137Z,98.77
2024-02-03T08:09:38.183Z,98.97
2024-02-03T08:10:38.176Z,98.97
2024-02-03T08:11:38.110Z,99.18
2024-02-03T08:12:38.111Z,99.49
2024-02-03T08:13:38.087Z,99.18
2024-02-03T08:14:38.082Z,99.38
2024-02-03T08:15:38.113Z,99.28
2024-02-03T08:16:38.130Z,99.28
2024-02-03T08:17:38.060Z,99.38
2024-02-03T08:18:38.071Z,99.44
2024-02-03T08:19:38.182Z,99.49
2024-02-03T08:20:38.023Z,98.77
2024-02-03T08:21:38.044Z,98.77
2024-02-03T08:22:38.010Z,99.18
2024-02-03T08:23:37.982Z,99.34
2024-02-03T08:24:38.078Z,98.72
2024-02-03T08:25:37.952Z,98.72
2024-02-03T08:26:40.356Z,98.83
2024-02-03T08:27:38.035Z,98.93
2024-02-03T08:28:37.916Z,98.83
2024-02-03T08:29:37.913Z,98.72
2024-02-03T08:30:37.999Z,98.72
2024-02-03T08:31:38.120Z,98.72
2024-02-03T08:32:37.986Z,99.03
2024-02-03T08:33:38.069Z,98.93
2024-02-03T08:34:38.045Z,98.62
2024-02-03T08:35:37.986Z,98.83
2024-02-03T08:36:37.936Z,99.03
2024-02-03T08:37:37.852Z,98.93
2024-02-03T08:38:37.802Z,98.78
2024-02-03T08:40:37.821Z,98.83
2024-02-03T08:41:37.787Z,98.99
2024-02-03T08:42:37.819Z,99.03
2024-02-03T08:43:37.777Z,98.99
2024-02-03T08:44:37.744Z,98.99
2024-02-03T08:45:37.754Z,99.19
2024-02-03T08:46:37.717Z,99.24
2024-02-03T08:47:37.766Z,99.03
2024-02-03T08:48:37.889Z,98.78
2024-02-03T08:49:37.821Z,99.09
2024-02-03T08:50:37.674Z,98.99
2024-02-03T08:51:40.056Z,98.42
2024-02-03T08:52:37.659Z,98.37
2024-02-03T08:53:37.668Z,98.68
2024-02-03T08:54:37.763Z,98.68
2024-02-03T08:55:37.660Z,98.21
2024-02-03T08:56:37.707Z,98.16
2024-02-03T08:57:37.673Z,98.37
2024-02-03T08:58:37.700Z,98.37
2024-02-03T08:59:37.704Z,98.27
2024-02-03T09:00:37.711Z,98.47
2024-02-03T09:01:37.655Z,97.86
2024-02-03T09:02:37.674Z,97.34
2024-02-03T09:03:37.641Z,97.14
2024-02-03T09:04:37.725Z,96.47
2024-02-03T09:05:37.608Z,96.53
2024-02-03T09:06:37.527Z,96.32
2024-02-03T09:07:37.573Z,96.53
2024-02-03T09:08:37.475Z,96.01
2024-02-03T09:09:37.507Z,96.07
2024-02-03T09:10:37.486Z,95.87
2024-02-03T09:11:37.462Z,94.23
2024-02-03T09:12:37.481Z,94.12
2024-02-03T09:13:37.526Z,93.82
2024-02-03T09:14:37.434Z,94.33
2024-02-03T09:15:37.447Z,94.02
2024-02-03T09:16:37.391Z,93.37
2024-02-03T09:17:37.458Z,93.57
2024-02-03T09:18:37.470Z,93.67
2024-02-03T09:19:37.597Z,93.37
2024-02-03T09:20:37.371Z,93.47
2024-02-03T09:21:37.360Z,93.67
2024-02-03T09:22:37.320Z,93.67
2024-02-03T09:23:37.384Z,93.47
2024-02-03T09:24:37.346Z,93.52
2024-02-03T09:25:37.958Z,93.88
2024-02-03T09:26:37.281Z,93.88
2024-02-03T09:27:37.322Z,93.77
2024-02-03T09:28:37.269Z,92.71
2024-02-03T09:29:37.286Z,92.75
2024-02-03T09:30:37.276Z,93.88
2024-02-03T09:31:37.222Z,93.37
2024-02-03T09:32:37.328Z,93.22
2024-02-03T09:33:37.341Z,93.26
2024-02-03T09:34:37.236Z,92.96
2024-02-03T09:35:37.209Z,93.12
2024-02-03T09:37:51.007Z,93.16
2024-02-03T09:38:37.144Z,93.32
2024-02-03T09:39:37.206Z,93.67
2024-02-03T09:40:37.139Z,92.81
2024-02-03T09:41:37.170Z,93.12
2024-02-03T09:42:37.133Z,92.71
2024-02-03T09:43:37.104Z,92.30
2024-02-03T09:44:37.092Z,92.19
2024-02-03T09:45:37.235Z,92.50
2024-02-03T09:46:37.058Z,92.30
2024-02-03T09:47:37.088Z,92.15
2024-02-03T09:48:37.185Z,92.30
2024-02-03T09:49:37.109Z,92.46
2024-02-03T09:50:37.008Z,92.25
2024-02-03T09:51:37.019Z,92.56
2024-02-03T09:52:36.990Z,92.25
2024-02-03T09:53:37.016Z,92.46
2024-02-03T09:54:37.002Z,92.36
2024-02-03T09:55:36.992Z,91.23
2024-02-03T09:56:36.965Z,91.23
2024-02-03T09:57:36.965Z,91.33
2024-02-03T09:58:37.231Z,91.95
2024-02-03T09:59:36.930Z,92.05
2024-02-03T10:00:37.029Z,92.36
2024-02-03T10:01:36.932Z,92.05
2024-02-03T10:02:36.901Z,91.85
2024-02-03T10:03:36.895Z,91.44
2024-02-03T10:04:36.897Z,91.74
2024-02-03T10:05:36.960Z,91.85
2024-02-03T10:06:36.927Z,90.99
2024-02-03T10:07:36.866Z,90.58
2024-02-03T10:08:36.822Z,90.58
2024-02-03T10:11:36.915Z,90.78
2024-02-03T10:12:36.804Z,91.91
2024-02-03T10:13:36.776Z,91.70
2024-02-03T10:14:36.772Z,91.86
2024-02-03T10:15:36.804Z,91.29
2024-02-03T10:16:36.732Z,90.99
2024-02-03T10:17:36.965Z,90.99
2024-02-03T10:18:36.981Z,91.09
2024-02-03T10:19:37.007Z,90.78
2024-02-03T10:20:36.701Z,90.78
2024-02-03T10:21:36.764Z,91.60
2024-02-03T10:22:36.756Z,90.84
2024-02-03T10:23:36.666Z,91.39
2024-02-03T10:24:36.753Z,91.39
2024-02-03T10:25:36.675Z,91.25
2024-02-03T10:26:36.621Z,91.39
2024-02-03T10:27:36.714Z,91.66
2024-02-03T10:28:36.641Z,91.50
2024-02-03T10:29:36.672Z,91.56
2024-02-03T10:30:36.604Z,91.66
2024-02-03T10:31:38.053Z,90.84
2024-02-03T10:32:36.649Z,90.58
2024-02-03T10:33:36.809Z,90.68
2024-02-03T10:34:37.465Z,91.25
2024-02-03T10:35:36.541Z,91.05
2024-02-03T10:36:36.529Z,91.35
2024-02-03T10:37:36.704Z,90.94
2024-02-03T10:38:36.496Z,90.23
2024-02-03T10:39:37.342Z,90.94
2024-02-03T10:40:36.505Z,91.25
2024-02-03T10:41:36.514Z,91.35
2024-02-03T10:42:36.490Z,90.84
2024-02-03T10:43:36.461Z,91.25
2024-02-03T10:44:36.489Z,91.15
2024-02-03T10:45:36.432Z,90.64
2024-02-03T10:46:36.438Z,91.25
2024-02-03T10:47:36.427Z,90.84
2024-02-03T10:48:36.595Z,90.84
2024-02-03T10:49:36.506Z,90.29
2024-02-03T10:50:36.362Z,90.53
2024-02-03T10:51:36.377Z,90.64
2024-02-03T10:52:36.411Z,90.59
2024-02-03T10:53:36.345Z,90.64
2024-02-03T10:54:36.354Z,90.59
2024-02-03T10:55:36.353Z,90.90
2024-02-03T10:56:36.312Z,90.70
2024-02-03T10:57:36.375Z,90.53
2024-02-03T10:58:36.271Z,90.29
2024-02-03T10:59:36.380Z,90.19
2024-02-03T11:00:36.326Z,89.88
2024-02-03T11:01:36.293Z,90.49
2024-02-03T11:02:36.285Z,90.39
2024-02-03T11:03:36.299Z,90.39
2024-02-03T11:04:36.294Z,89.88
2024-02-03T11:05:36.328Z,90.29
2024-02-03T11:06:36.329Z,90.29
2024-02-03T11:07:36.172Z,90.19
2024-02-03T11:08:36.179Z,90.19
2024-02-03T11:09:36.211Z,90.08
2024-02-03T11:10:36.170Z,90.39
2024-02-03T11:11:36.128Z,90.59
2024-02-03T11:12:36.882Z,90.49
2024-02-03T11:13:36.122Z,90.55
2024-02-03T11:14:36.124Z,90.55
2024-02-03T11:15:36.266Z,90.25
2024-02-03T11:16:36.073Z,89.78
2024-02-03T11:17:36.094Z,89.53
2024-02-03T11:18:36.152Z,90.04
2024-02-03T11:19:36.115Z,90.35
2024-02-03T11:20:36.028Z,90.25
2024-02-03T11:21:36.038Z,90.04
2024-02-03T11:22:36.021Z,89.43
2024-02-03T11:23:36.060Z,89.73
2024-02-03T11:24:36.297Z,89.43
2024-02-03T11:25:35.981Z,89.73
2024-02-03T11:26:35.972Z,89.69
2024-02-03T11:27:36.000Z,89.69
2024-02-03T11:28:35.944Z,89.63
2024-02-03T11:29:35.963Z,89.39
2024-02-03T11:30:36.035Z,89.43
2024-02-03T11:31:35.936Z,89.18
2024-02-03T11:32:35.997Z,89.69
2024-02-03T11:33:36.129Z,89.79
2024-02-03T11:34:35.972Z,89.73
2024-02-03T11:35:36.092Z,88.98
2024-02-03T11:36:35.902Z,89.90
2024-02-03T11:37:35.856Z,89.69
2024-02-03T11:38:35.887Z,89.79
2024-02-03T11:39:35.959Z,89.08
2024-02-03T11:40:35.815Z,89.90
2024-02-03T11:41:35.800Z,89.63
2024-02-03T11:42:35.844Z,89.49
2024-02-03T11:43:35.861Z,89.59
2024-02-03T11:44:35.781Z,89.59
2024-02-03T11:45:35.816Z,89.49
2024-02-03T11:46:35.831Z,89.79
2024-02-03T11:47:35.772Z,89.39
2024-02-03T11:48:35.852Z,89.59
2024-02-03T11:49:35.974Z,89.59
2024-02-03T11:50:35.741Z,89.59
2024-02-03T11:51:35.751Z,88.98
2024-02-03T11:52:35.690Z,89.49
2024-02-03T11:53:35.671Z,89.08
2024-02-03T11:54:35.733Z,88.73
2024-02-03T11:55:35.657Z,88.93
2024-02-03T11:56:35.690Z,88.98
2024-02-03T11:57:35.678Z,88.53
2024-02-03T11:58:35.618Z,88.73
2024-02-03T11:59:35.599Z,88.53
2024-02-03T12:00:35.616Z,88.88
2024-02-03T12:01:35.587Z,88.88
2024-02-03T12:02:35.609Z,88.53
2024-02-03T12:03:35.661Z,88.32
2024-02-03T12:04:35.630Z,88.73
2024-02-03T12:05:35.550Z,88.73
2024-02-03T12:06:35.554Z,88.12
2024-02-03T12:07:35.590Z,87.61
2024-02-03T12:08:37.109Z,87.82
2024-02-03T12:09:35.533Z,88.02
2024-02-03T12:10:35.505Z,87.47
2024-02-03T12:11:35.454Z,87.41
2024-02-03T12:12:35.551Z,87.71
2024-02-03T12:13:35.442Z,87.82
2024-02-03T12:14:35.445Z,87.41
2024-02-03T12:15:35.523Z,87.16
2024-02-03T12:16:35.432Z,87.41
2024-02-03T12:17:35.439Z,87.47
2024-02-03T12:18:35.534Z,87.26
2024-02-03T12:19:35.549Z,86.96
2024-02-03T12:20:35.413Z,86.59
2024-02-03T12:21:35.372Z,86.90
2024-02-03T12:22:35.347Z,86.96
2024-02-03T12:23:35.370Z,87.92
2024-02-03T12:24:35.398Z,87.77
2024-02-03T12:25:35.343Z,87.71
2024-02-03T12:26:35.308Z,87.20
2024-02-03T12:27:35.407Z,87.57
2024-02-03T12:28:35.422Z,87.26
2024-02-03T12:29:35.290Z,86.96
2024-02-03T12:30:35.301Z,87.16
2024-02-03T12:31:35.241Z,87.06
2024-02-03T12:32:35.316Z,86.96
2024-02-03T12:33:35.327Z,87.16
2024-02-03T12:34:35.357Z,86.65
2024-02-03T12:35:35.248Z,86.96
2024-02-03T12:36:35.238Z,86.45
2024-02-03T12:37:35.219Z,86.86
2024-02-03T12:38:35.285Z,86.35
2024-02-03T12:39:35.222Z,86.96
2024-02-03T12:40:35.272Z,86.86
2024-02-03T12:41:35.134Z,86.65
2024-02-03T12:42:35.291Z,87.10
2024-02-03T12:43:35.118Z,86.49
2024-02-03T12:44:35.136Z,86.86
2024-02-03T12:45:36.896Z,87.10
2024-02-03T12:46:35.089Z,87.61
2024-02-03T12:47:35.147Z,87.37
2024-02-03T12:48:35.225Z,87.41
2024-02-03T12:49:35.238Z,87.30
2024-02-03T12:50:35.066Z,87.30
2024-02-03T12:51:35.136Z,87.30
2024-02-03T12:52:35.021Z,86.86
2024-02-03T12:53:35.035Z,87.06
2024-02-03T12:54:35.024Z,86.96
2024-02-03T12:55:36.563Z,87.26
2024-02-03T12:56:34.991Z,87.26